sensor_id;sensor_type;location;lat;lon;timestamp;temperature;humidity
3298;DHT22;1661;53.572;10.174;2024-02-26T00:00:45;6.60;86.00
3298;DHT22;1661;53.572;10.174;2024-02-26T00:03:14;6.50;85.90
3298;DHT22;1661;53.572;10.174;2024-02-26T00:05:41;6.50;85.90
3298;DHT22;1661;53.572;10.174;2024-02-26T00:08:10;6.50;85.80
3298;DHT22;1661;53.572;10.174;2024-02-26T00:10:39;6.50;85.80
3298;DHT22;1661;53.572;10.174;2024-02-26T00:13:05;6.40;85.70
3298;DHT22;1661;53.572;10.174;2024-02-26T00:15:35;6.40;85.50
3298;DHT22;1661;53.572;10.174;2024-02-26T00:18:02;6.30;85.50
3298;DHT22;1661;53.572;10.174;2024-02-26T00:20:30;6.30;85.30
3298;DHT22;1661;53.572;10.174;2024-02-26T00:22:57;6.30;85.40
3298;DHT22;1661;53.572;10.174;2024-02-26T00:25:23;6.20;85.30
3298;DHT22;1661;53.572;10.174;2024-02-26T00:27:50;6.20;85.20
3298;DHT22;1661;53.572;10.174;2024-02-26T00:30:17;6.20;85.00
3298;DHT22;1661;53.572;10.174;2024-02-26T00:32:44;6.10;85.00
3298;DHT22;1661;53.572;10.174;2024-02-26T00:35:10;6.10;85.10
3298;DHT22;1661;53.572;10.174;2024-02-26T00:37:41;6.00;84.90
3298;DHT22;1661;53.572;10.174;2024-02-26T00:40:10;6.00;84.90
3298;DHT22;1661;53.572;10.174;2024-02-26T00:42:36;6.00;84.90
3298;DHT22;1661;53.572;10.174;2024-02-26T00:45:04;5.90;85.10
3298;DHT22;1661;53.572;10.174;2024-02-26T00:47:31;5.90;85.10
3298;DHT22;1661;53.572;10.174;2024-02-26T00:49:58;5.90;85.10
3298;DHT22;1661;53.572;10.174;2024-02-26T00:52:25;5.80;85.00
3298;DHT22;1661;53.572;10.174;2024-02-26T00:54:53;5.80;84.90
3298;DHT22;1661;53.572;10.174;2024-02-26T00:57:20;5.80;84.80
3298;DHT22;1661;53.572;10.174;2024-02-26T00:59:47;5.70;84.80
3298;DHT22;1661;53.572;10.174;2024-02-26T01:02:13;5.70;84.80
3298;DHT22;1661;53.572;10.174;2024-02-26T01:04:40;5.70;84.90
3298;DHT22;1661;53.572;10.174;2024-02-26T01:07:06;5.60;85.10
3298;DHT22;1661;53.572;10.174;2024-02-26T01:09:33;5.60;85.20
3298;DHT22;1661;53.572;10.174;2024-02-26T01:12:01;5.60;85.40
3298;DHT22;1661;53.572;10.174;2024-02-26T01:14:28;5.50;85.60
3298;DHT22;1661;53.572;10.174;2024-02-26T01:17:00;5.50;85.80
3298;DHT22;1661;53.572;10.174;2024-02-26T01:19:29;5.40;85.60
3298;DHT22;1661;53.572;10.174;2024-02-26T01:21:56;5.40;85.50
3298;DHT22;1661;53.572;10.174;2024-02-26T01:24:23;5.40;85.50
3298;DHT22;1661;53.572;10.174;2024-02-26T01:26:49;5.30;85.40
3298;DHT22;1661;53.572;10.174;2024-02-26T01:29:20;5.30;85.40
3298;DHT22;1661;53.572;10.174;2024-02-26T01:31:47;5.20;85.50
3298;DHT22;1661;53.572;10.174;2024-02-26T01:34:13;5.20;85.60
3298;DHT22;1661;53.572;10.174;2024-02-26T01:36:40;5.20;85.80
3298;DHT22;1661;53.572;10.174;2024-02-26T01:39:07;5.20;85.80
3298;DHT22;1661;53.572;10.174;2024-02-26T01:41:38;5.10;85.80
3298;DHT22;1661;53.572;10.174;2024-02-26T01:44:07;5.10;85.60
3298;DHT22;1661;53.572;10.174;2024-02-26T01:46:38;5.10;85.50
3298;DHT22;1661;53.572;10.174;2024-02-26T01:49:06;5.10;85.30
3298;DHT22;1661;53.572;10.174;2024-02-26T01:51:33;5.00;85.30
3298;DHT22;1661;53.572;10.174;2024-02-26T01:54:02;5.00;85.30
3298;DHT22;1661;53.572;10.174;2024-02-26T01:56:30;5.00;85.30
3298;DHT22;1661;53.572;10.174;2024-02-26T01:58:57;4.90;85.50
3298;DHT22;1661;53.572;10.174;2024-02-26T02:01:25;4.90;85.70
3298;DHT22;1661;53.572;10.174;2024-02-26T02:03:56;4.90;85.40
3298;DHT22;1661;53.572;10.174;2024-02-26T02:06:24;4.80;85.00
3298;DHT22;1661;53.572;10.174;2024-02-26T02:08:52;4.70;84.60
3298;DHT22;1661;53.572;10.174;2024-02-26T02:11:19;4.70;84.80
3298;DHT22;1661;53.572;10.174;2024-02-26T02:13:46;4.60;85.00
3298;DHT22;1661;53.572;10.174;2024-02-26T02:16:13;4.60;85.30
3298;DHT22;1661;53.572;10.174;2024-02-26T02:18:40;4.60;85.50
3298;DHT22;1661;53.572;10.174;2024-02-26T02:21:08;4.50;85.70
3298;DHT22;1661;53.572;10.174;2024-02-26T02:23:34;4.50;85.70
3298;DHT22;1661;53.572;10.174;2024-02-26T02:26:07;4.50;85.50
3298;DHT22;1661;53.572;10.174;2024-02-26T02:28:34;4.50;85.50
3298;DHT22;1661;53.572;10.174;2024-02-26T02:31:01;4.40;85.50
3298;DHT22;1661;53.572;10.174;2024-02-26T02:33:29;4.40;85.40
3298;DHT22;1661;53.572;10.174;2024-02-26T02:35:56;4.30;85.20
3298;DHT22;1661;53.572;10.174;2024-02-26T02:38:24;4.30;85.30
3298;DHT22;1661;53.572;10.174;2024-02-26T02:40:55;4.30;85.50
3298;DHT22;1661;53.572;10.174;2024-02-26T02:43:22;4.20;85.60
3298;DHT22;1661;53.572;10.174;2024-02-26T02:45:49;4.20;85.60
3298;DHT22;1661;53.572;10.174;2024-02-26T02:48:15;4.20;85.80
3298;DHT22;1661;53.572;10.174;2024-02-26T02:50:42;4.10;85.90
3298;DHT22;1661;53.572;10.174;2024-02-26T02:53:11;4.10;85.90
3298;DHT22;1661;53.572;10.174;2024-02-26T02:55:39;4.10;86.00
3298;DHT22;1661;53.572;10.174;2024-02-26T02:58:06;4.10;86.10
3298;DHT22;1661;53.572;10.174;2024-02-26T03:00:33;4.10;86.30
3298;DHT22;1661;53.572;10.174;2024-02-26T03:02:59;4.10;86.20
3298;DHT22;1661;53.572;10.174;2024-02-26T03:05:26;4.10;86.40
3298;DHT22;1661;53.572;10.174;2024-02-26T03:07:53;4.10;86.50
3298;DHT22;1661;53.572;10.174;2024-02-26T03:10:20;4.10;86.50
3298;DHT22;1661;53.572;10.174;2024-02-26T03:12:48;4.10;86.60
3298;DHT22;1661;53.572;10.174;2024-02-26T03:15:15;4.10;86.60
3298;DHT22;1661;53.572;10.174;2024-02-26T03:17:50;4.00;86.60
3298;DHT22;1661;53.572;10.174;2024-02-26T03:20:19;4.00;86.60
3298;DHT22;1661;53.572;10.174;2024-02-26T03:22:46;4.00;86.60
3298;DHT22;1661;53.572;10.174;2024-02-26T03:25:15;4.00;86.50
3298;DHT22;1661;53.572;10.174;2024-02-26T03:27:42;4.00;86.50
3298;DHT22;1661;53.572;10.174;2024-02-26T03:30:12;4.00;86.40
3298;DHT22;1661;53.572;10.174;2024-02-26T03:32:39;4.00;86.30
3298;DHT22;1661;53.572;10.174;2024-02-26T03:35:06;4.00;86.30
3298;DHT22;1661;53.572;10.174;2024-02-26T03:37:33;3.90;86.40
3298;DHT22;1661;53.572;10.174;2024-02-26T03:40:00;3.90;86.40
3298;DHT22;1661;53.572;10.174;2024-02-26T03:42:31;3.90;86.60
3298;DHT22;1661;53.572;10.174;2024-02-26T03:44:58;3.90;86.70
3298;DHT22;1661;53.572;10.174;2024-02-26T03:47:26;3.90;86.80
3298;DHT22;1661;53.572;10.174;2024-02-26T03:49:53;3.90;86.90
3298;DHT22;1661;53.572;10.174;2024-02-26T03:52:22;3.90;86.80
3298;DHT22;1661;53.572;10.174;2024-02-26T03:54:51;3.90;86.70
3298;DHT22;1661;53.572;10.174;2024-02-26T03:57:18;3.90;86.70
3298;DHT22;1661;53.572;10.174;2024-02-26T03:59:45;3.90;86.60
3298;DHT22;1661;53.572;10.174;2024-02-26T04:02:12;3.90;86.60
3298;DHT22;1661;53.572;10.174;2024-02-26T04:04:40;3.80;86.50
3298;DHT22;1661;53.572;10.174;2024-02-26T04:07:09;3.80;86.40
3298;DHT22;1661;53.572;10.174;2024-02-26T04:09:39;3.80;86.20
3298;DHT22;1661;53.572;10.174;2024-02-26T04:12:07;3.70;86.10
3298;DHT22;1661;53.572;10.174;2024-02-26T04:14:33;3.70;86.10
3298;DHT22;1661;53.572;10.174;2024-02-26T04:17:04;3.70;86.30
3298;DHT22;1661;53.572;10.174;2024-02-26T04:19:31;3.70;86.30
3298;DHT22;1661;53.572;10.174;2024-02-26T04:21:59;3.70;86.60
3298;DHT22;1661;53.572;10.174;2024-02-26T04:24:26;3.60;86.70
3298;DHT22;1661;53.572;10.174;2024-02-26T04:26:53;3.70;86.70
3298;DHT22;1661;53.572;10.174;2024-02-26T04:29:22;3.70;86.70
3298;DHT22;1661;53.572;10.174;2024-02-26T04:31:56;3.60;86.80
3298;DHT22;1661;53.572;10.174;2024-02-26T04:34:23;3.70;86.90
3298;DHT22;1661;53.572;10.174;2024-02-26T04:36:49;3.60;86.80
3298;DHT22;1661;53.572;10.174;2024-02-26T04:39:18;3.60;86.70
3298;DHT22;1661;53.572;10.174;2024-02-26T04:41:47;3.60;86.80
3298;DHT22;1661;53.572;10.174;2024-02-26T04:44:13;3.60;86.90
3298;DHT22;1661;53.572;10.174;2024-02-26T04:46:40;3.60;86.90
3298;DHT22;1661;53.572;10.174;2024-02-26T04:49:10;3.60;87.00
3298;DHT22;1661;53.572;10.174;2024-02-26T04:51:37;3.60;87.00
3298;DHT22;1661;53.572;10.174;2024-02-26T04:54:03;3.60;87.00
3298;DHT22;1661;53.572;10.174;2024-02-26T04:56:35;3.60;87.00
3298;DHT22;1661;53.572;10.174;2024-02-26T04:59:01;3.60;87.10
3298;DHT22;1661;53.572;10.174;2024-02-26T05:01:31;3.50;87.20
3298;DHT22;1661;53.572;10.174;2024-02-26T05:04:01;3.60;87.40
3298;DHT22;1661;53.572;10.174;2024-02-26T05:06:28;3.50;87.50
3298;DHT22;1661;53.572;10.174;2024-02-26T05:08:55;3.50;87.60
3298;DHT22;1661;53.572;10.174;2024-02-26T05:11:22;3.50;87.70
3298;DHT22;1661;53.572;10.174;2024-02-26T05:13:50;3.50;87.60
3298;DHT22;1661;53.572;10.174;2024-02-26T05:16:16;3.50;87.60
3298;DHT22;1661;53.572;10.174;2024-02-26T05:18:45;3.60;87.60
3298;DHT22;1661;53.572;10.174;2024-02-26T05:21:12;3.50;87.60
3298;DHT22;1661;53.572;10.174;2024-02-26T05:23:39;3.60;87.60
3298;DHT22;1661;53.572;10.174;2024-02-26T05:26:08;3.60;87.50
3298;DHT22;1661;53.572;10.174;2024-02-26T05:28:35;3.50;87.40
3298;DHT22;1661;53.572;10.174;2024-02-26T05:31:04;3.50;87.40
3298;DHT22;1661;53.572;10.174;2024-02-26T05:33:34;3.50;87.10
3298;DHT22;1661;53.572;10.174;2024-02-26T05:36:01;3.50;86.70
3298;DHT22;1661;53.572;10.174;2024-02-26T05:38:29;3.40;86.70
3298;DHT22;1661;53.572;10.174;2024-02-26T05:41:00;3.40;86.80
3298;DHT22;1661;53.572;10.174;2024-02-26T05:43:30;3.40;87.00
3298;DHT22;1661;53.572;10.174;2024-02-26T05:45:59;3.40;87.10
3298;DHT22;1661;53.572;10.174;2024-02-26T05:48:28;3.40;87.10
3298;DHT22;1661;53.572;10.174;2024-02-26T05:50:54;3.40;87.00
3298;DHT22;1661;53.572;10.174;2024-02-26T05:53:21;3.40;87.10
3298;DHT22;1661;53.572;10.174;2024-02-26T05:55:48;3.40;87.10
3298;DHT22;1661;53.572;10.174;2024-02-26T05:58:14;3.40;87.10
3298;DHT22;1661;53.572;10.174;2024-02-26T06:00:44;3.40;87.00
3298;DHT22;1661;53.572;10.174;2024-02-26T06:03:11;3.40;87.00
3298;DHT22;1661;53.572;10.174;2024-02-26T06:05:45;3.40;87.00
3298;DHT22;1661;53.572;10.174;2024-02-26T06:08:12;3.40;87.00
3298;DHT22;1661;53.572;10.174;2024-02-26T06:10:39;3.40;86.90
3298;DHT22;1661;53.572;10.174;2024-02-26T06:13:06;3.40;87.00
3298;DHT22;1661;53.572;10.174;2024-02-26T06:15:33;3.40;86.90
3298;DHT22;1661;53.572;10.174;2024-02-26T06:17:59;3.40;87.00
3298;DHT22;1661;53.572;10.174;2024-02-26T06:20:26;3.40;87.10
3298;DHT22;1661;53.572;10.174;2024-02-26T06:22:54;3.40;87.10
3298;DHT22;1661;53.572;10.174;2024-02-26T06:25:21;3.40;87.20
3298;DHT22;1661;53.572;10.174;2024-02-26T06:27:48;3.40;87.30
3298;DHT22;1661;53.572;10.174;2024-02-26T06:30:15;3.40;87.30
3298;DHT22;1661;53.572;10.174;2024-02-26T06:32:42;3.40;87.30
3298;DHT22;1661;53.572;10.174;2024-02-26T06:35:09;3.40;87.40
3298;DHT22;1661;53.572;10.174;2024-02-26T06:37:37;3.40;87.20
3298;DHT22;1661;53.572;10.174;2024-02-26T06:40:06;3.40;86.90
3298;DHT22;1661;53.572;10.174;2024-02-26T06:42:36;3.40;86.90
3298;DHT22;1661;53.572;10.174;2024-02-26T06:45:04;3.40;87.10
3298;DHT22;1661;53.572;10.174;2024-02-26T06:47:33;3.40;87.20
3298;DHT22;1661;53.572;10.174;2024-02-26T06:49:59;3.40;87.30
3298;DHT22;1661;53.572;10.174;2024-02-26T06:52:26;3.40;87.30
3298;DHT22;1661;53.572;10.174;2024-02-26T06:54:55;3.40;87.30
3298;DHT22;1661;53.572;10.174;2024-02-26T06:57:26;3.40;87.30
3298;DHT22;1661;53.572;10.174;2024-02-26T06:59:52;3.40;87.50
3298;DHT22;1661;53.572;10.174;2024-02-26T07:02:19;3.50;87.60
3298;DHT22;1661;53.572;10.174;2024-02-26T07:04:46;3.50;87.70
3298;DHT22;1661;53.572;10.174;2024-02-26T07:07:13;3.50;87.90
3298;DHT22;1661;53.572;10.174;2024-02-26T07:09:45;3.60;88.00
3298;DHT22;1661;53.572;10.174;2024-02-26T07:12:11;3.60;88.10
3298;DHT22;1661;53.572;10.174;2024-02-26T07:14:40;3.70;88.10
3298;DHT22;1661;53.572;10.174;2024-02-26T07:17:07;3.70;88.20
3298;DHT22;1661;53.572;10.174;2024-02-26T07:19:34;3.70;88.20
3298;DHT22;1661;53.572;10.174;2024-02-26T07:22:01;3.70;88.30
3298;DHT22;1661;53.572;10.174;2024-02-26T07:24:28;3.80;88.40
3298;DHT22;1661;53.572;10.174;2024-02-26T07:26:58;3.80;88.50
3298;DHT22;1661;53.572;10.174;2024-02-26T07:29:24;3.90;88.40
3298;DHT22;1661;53.572;10.174;2024-02-26T07:31:52;3.90;88.40
3298;DHT22;1661;53.572;10.174;2024-02-26T07:34:19;4.00;88.40
3298;DHT22;1661;53.572;10.174;2024-02-26T07:36:52;4.10;88.40
3298;DHT22;1661;53.572;10.174;2024-02-26T07:39:19;4.10;88.40
3298;DHT22;1661;53.572;10.174;2024-02-26T07:41:46;4.20;88.40
3298;DHT22;1661;53.572;10.174;2024-02-26T07:44:18;4.20;88.40
3298;DHT22;1661;53.572;10.174;2024-02-26T07:46:45;4.30;88.60
3298;DHT22;1661;53.572;10.174;2024-02-26T07:49:13;4.30;88.70
3298;DHT22;1661;53.572;10.174;2024-02-26T07:51:40;4.30;88.80
3298;DHT22;1661;53.572;10.174;2024-02-26T07:54:07;4.40;88.90
3298;DHT22;1661;53.572;10.174;2024-02-26T07:56:34;4.40;89.20
3298;DHT22;1661;53.572;10.174;2024-02-26T07:59:08;4.40;89.30
3298;DHT22;1661;53.572;10.174;2024-02-26T08:01:35;4.50;89.30
3298;DHT22;1661;53.572;10.174;2024-02-26T08:04:04;4.50;89.50
3298;DHT22;1661;53.572;10.174;2024-02-26T08:06:32;4.50;89.70
3298;DHT22;1661;53.572;10.174;2024-02-26T08:09:02;4.30;90.10
3298;DHT22;1661;53.572;10.174;2024-02-26T08:11:29;4.30;90.90
3298;DHT22;1661;53.572;10.174;2024-02-26T08:13:56;4.30;91.40
3298;DHT22;1661;53.572;10.174;2024-02-26T08:16:24;4.40;91.50
3298;DHT22;1661;53.572;10.174;2024-02-26T08:18:51;4.50;91.50
3298;DHT22;1661;53.572;10.174;2024-02-26T08:21:18;4.50;91.50
3298;DHT22;1661;53.572;10.174;2024-02-26T08:23:48;4.60;91.50
3298;DHT22;1661;53.572;10.174;2024-02-26T08:26:15;4.70;91.50
3298;DHT22;1661;53.572;10.174;2024-02-26T08:28:41;4.80;91.50
3298;DHT22;1661;53.572;10.174;2024-02-26T08:31:10;4.90;91.40
3298;DHT22;1661;53.572;10.174;2024-02-26T08:33:37;5.00;91.10
3298;DHT22;1661;53.572;10.174;2024-02-26T08:36:04;5.10;90.90
3298;DHT22;1661;53.572;10.174;2024-02-26T08:38:31;5.10;90.80
3298;DHT22;1661;53.572;10.174;2024-02-26T08:41:01;5.20;90.70
3298;DHT22;1661;53.572;10.174;2024-02-26T08:43:28;5.30;90.70
3298;DHT22;1661;53.572;10.174;2024-02-26T08:45:55;5.30;90.70
3298;DHT22;1661;53.572;10.174;2024-02-26T08:48:21;5.40;90.70
3298;DHT22;1661;53.572;10.174;2024-02-26T08:50:48;5.40;90.60
3298;DHT22;1661;53.572;10.174;2024-02-26T08:53:20;5.40;90.80
3298;DHT22;1661;53.572;10.174;2024-02-26T08:55:47;5.40;90.80
3298;DHT22;1661;53.572;10.174;2024-02-26T08:58:15;5.50;90.90
3298;DHT22;1661;53.572;10.174;2024-02-26T09:00:42;5.50;91.00
3298;DHT22;1661;53.572;10.174;2024-02-26T09:03:09;5.60;91.00
3298;DHT22;1661;53.572;10.174;2024-02-26T09:05:35;5.60;90.90
3298;DHT22;1661;53.572;10.174;2024-02-26T09:08:02;5.80;91.10
3298;DHT22;1661;53.572;10.174;2024-02-26T09:10:29;5.80;90.80
3298;DHT22;1661;53.572;10.174;2024-02-26T09:12:57;5.90;90.90
3298;DHT22;1661;53.572;10.174;2024-02-26T09:15:25;6.00;91.10
3298;DHT22;1661;53.572;10.174;2024-02-26T09:17:52;6.10;91.00
3298;DHT22;1661;53.572;10.174;2024-02-26T09:20:19;6.20;90.90
3298;DHT22;1661;53.572;10.174;2024-02-26T09:22:47;6.30;91.00
3298;DHT22;1661;53.572;10.174;2024-02-26T09:25:14;6.40;90.90
3298;DHT22;1661;53.572;10.174;2024-02-26T09:27:41;6.60;90.80
3298;DHT22;1661;53.572;10.174;2024-02-26T09:30:10;6.70;90.90
3298;DHT22;1661;53.572;10.174;2024-02-26T09:32:39;6.80;90.90
3298;DHT22;1661;53.572;10.174;2024-02-26T09:35:06;6.90;90.80
3298;DHT22;1661;53.572;10.174;2024-02-26T09:37:33;7.00;90.50
3298;DHT22;1661;53.572;10.174;2024-02-26T09:40:02;7.10;90.20
3298;DHT22;1661;53.572;10.174;2024-02-26T09:42:31;7.20;90.00
3298;DHT22;1661;53.572;10.174;2024-02-26T09:45:00;7.20;89.90
3298;DHT22;1661;53.572;10.174;2024-02-26T09:47:35;7.30;89.90
3298;DHT22;1661;53.572;10.174;2024-02-26T09:50:09;7.40;89.70
3298;DHT22;1661;53.572;10.174;2024-02-26T09:52:38;7.40;89.40
3298;DHT22;1661;53.572;10.174;2024-02-26T09:55:09;7.50;89.10
3298;DHT22;1661;53.572;10.174;2024-02-26T09:57:37;7.50;88.80
3298;DHT22;1661;53.572;10.174;2024-02-26T10:00:04;7.60;88.60
3298;DHT22;1661;53.572;10.174;2024-02-26T10:02:35;7.60;88.20
3298;DHT22;1661;53.572;10.174;2024-02-26T10:05:08;7.60;88.40
3298;DHT22;1661;53.572;10.174;2024-02-26T10:07:37;7.60;88.30
3298;DHT22;1661;53.572;10.174;2024-02-26T10:10:08;7.60;88.10
3298;DHT22;1661;53.572;10.174;2024-02-26T10:12:35;7.70;87.80
3298;DHT22;1661;53.572;10.174;2024-02-26T10:15:02;7.70;87.80
3298;DHT22;1661;53.572;10.174;2024-02-26T10:17:29;7.80;87.80
3298;DHT22;1661;53.572;10.174;2024-02-26T10:20:12;7.80;87.60
3298;DHT22;1661;53.572;10.174;2024-02-26T10:22:43;7.80;87.50
3298;DHT22;1661;53.572;10.174;2024-02-26T10:25:10;7.90;87.30
3298;DHT22;1661;53.572;10.174;2024-02-26T10:27:37;7.90;87.30
3298;DHT22;1661;53.572;10.174;2024-02-26T10:30:16;8.00;87.30
3298;DHT22;1661;53.572;10.174;2024-02-26T10:32:43;8.00;87.20
3298;DHT22;1661;53.572;10.174;2024-02-26T10:35:11;8.00;87.00
3298;DHT22;1661;53.572;10.174;2024-02-26T10:37:40;8.00;87.00
3298;DHT22;1661;53.572;10.174;2024-02-26T10:40:10;8.00;87.00
3298;DHT22;1661;53.572;10.174;2024-02-26T10:42:37;8.10;87.10
3298;DHT22;1661;53.572;10.174;2024-02-26T10:45:05;8.10;87.10
3298;DHT22;1661;53.572;10.174;2024-02-26T10:47:32;8.20;87.50
3298;DHT22;1661;53.572;10.174;2024-02-26T10:50:03;8.30;87.30
3298;DHT22;1661;53.572;10.174;2024-02-26T10:52:32;8.40;87.20
3298;DHT22;1661;53.572;10.174;2024-02-26T10:55:02;8.60;86.90
3298;DHT22;1661;53.572;10.174;2024-02-26T10:57:33;8.70;86.70
3298;DHT22;1661;53.572;10.174;2024-02-26T11:00:04;8.70;86.10
3298;DHT22;1661;53.572;10.174;2024-02-26T11:02:34;8.80;85.80
3298;DHT22;1661;53.572;10.174;2024-02-26T11:05:02;8.80;85.10
3298;DHT22;1661;53.572;10.174;2024-02-26T11:07:30;8.80;85.10
3298;DHT22;1661;53.572;10.174;2024-02-26T11:10:00;8.80;85.20
3298;DHT22;1661;53.572;10.174;2024-02-26T11:12:30;8.90;84.80
3298;DHT22;1661;53.572;10.174;2024-02-26T11:14:58;9.00;84.70
3298;DHT22;1661;53.572;10.174;2024-02-26T11:17:27;9.00;84.30
3298;DHT22;1661;53.572;10.174;2024-02-26T11:20:03;9.00;84.00
3298;DHT22;1661;53.572;10.174;2024-02-26T11:22:31;9.00;84.70
3298;DHT22;1661;53.572;10.174;2024-02-26T11:25:00;9.10;84.30
3298;DHT22;1661;53.572;10.174;2024-02-26T11:27:35;9.10;84.10
3298;DHT22;1661;53.572;10.174;2024-02-26T11:30:04;9.10;83.50
3298;DHT22;1661;53.572;10.174;2024-02-26T11:32:34;9.10;83.40
3298;DHT22;1661;53.572;10.174;2024-02-26T11:35:01;9.10;83.20
3298;DHT22;1661;53.572;10.174;2024-02-26T11:37:31;9.20;83.00
3298;DHT22;1661;53.572;10.174;2024-02-26T11:39:59;9.20;82.80
3298;DHT22;1661;53.572;10.174;2024-02-26T11:42:26;9.20;82.70
3298;DHT22;1661;53.572;10.174;2024-02-26T11:44:55;9.30;82.90
3298;DHT22;1661;53.572;10.174;2024-02-26T11:47:27;9.30;82.60
3298;DHT22;1661;53.572;10.174;2024-02-26T11:49:54;9.40;82.50
3298;DHT22;1661;53.572;10.174;2024-02-26T11:52:24;9.50;82.40
3298;DHT22;1661;53.572;10.174;2024-02-26T11:54:51;9.50;82.20
3298;DHT22;1661;53.572;10.174;2024-02-26T11:57:23;9.50;82.30
3298;DHT22;1661;53.572;10.174;2024-02-26T11:59:50;9.50;82.00
3298;DHT22;1661;53.572;10.174;2024-02-26T12:02:45;9.60;82.20
3298;DHT22;1661;53.572;10.174;2024-02-26T12:05:14;9.60;82.00
3298;DHT22;1661;53.572;10.174;2024-02-26T12:07:44;9.50;81.50
3298;DHT22;1661;53.572;10.174;2024-02-26T12:10:25;9.50;81.40
3298;DHT22;1661;53.572;10.174;2024-02-26T12:12:54;9.60;81.90
3298;DHT22;1661;53.572;10.174;2024-02-26T12:15:26;9.70;82.20
3298;DHT22;1661;53.572;10.174;2024-02-26T12:18:01;9.70;81.80
3298;DHT22;1661;53.572;10.174;2024-02-26T12:20:28;9.80;81.80
3298;DHT22;1661;53.572;10.174;2024-02-26T12:22:56;9.80;81.50
3298;DHT22;1661;53.572;10.174;2024-02-26T12:25:24;9.90;81.60
3298;DHT22;1661;53.572;10.174;2024-02-26T12:27:55;10.00;81.70
3298;DHT22;1661;53.572;10.174;2024-02-26T12:30:26;10.10;81.50
3298;DHT22;1661;53.572;10.174;2024-02-26T12:32:56;10.10;80.90
3298;DHT22;1661;53.572;10.174;2024-02-26T12:35:26;10.10;80.80
3298;DHT22;1661;53.572;10.174;2024-02-26T12:37:53;10.00;80.20
3298;DHT22;1661;53.572;10.174;2024-02-26T12:40:21;9.90;80.70
3298;DHT22;1661;53.572;10.174;2024-02-26T12:42:50;10.00;81.50
3298;DHT22;1661;53.572;10.174;2024-02-26T12:45:19;10.10;81.70
3298;DHT22;1661;53.572;10.174;2024-02-26T12:47:46;10.20;81.40
3298;DHT22;1661;53.572;10.174;2024-02-26T12:50:14;10.20;80.70
3298;DHT22;1661;53.572;10.174;2024-02-26T12:52:45;10.30;80.40
3298;DHT22;1661;53.572;10.174;2024-02-26T12:55:14;10.30;79.90
3298;DHT22;1661;53.572;10.174;2024-02-26T12:57:42;10.40;80.00
3298;DHT22;1661;53.572;10.174;2024-02-26T13:00:13;10.50;79.60
3298;DHT22;1661;53.572;10.174;2024-02-26T13:02:40;10.40;79.20
3298;DHT22;1661;53.572;10.174;2024-02-26T13:05:10;10.30;79.30
3298;DHT22;1661;53.572;10.174;2024-02-26T13:07:45;10.30;79.80
3298;DHT22;1661;53.572;10.174;2024-02-26T13:10:13;10.10;79.90
3298;DHT22;1661;53.572;10.174;2024-02-26T13:12:43;10.00;80.20
3298;DHT22;1661;53.572;10.174;2024-02-26T13:15:14;10.00;80.60
3298;DHT22;1661;53.572;10.174;2024-02-26T13:17:42;10.00;81.30
3298;DHT22;1661;53.572;10.174;2024-02-26T13:20:09;10.20;81.80
3298;DHT22;1661;53.572;10.174;2024-02-26T13:22:39;10.30;81.30
3298;DHT22;1661;53.572;10.174;2024-02-26T13:25:07;10.50;81.10
3298;DHT22;1661;53.572;10.174;2024-02-26T13:27:34;10.60;80.40
3298;DHT22;1661;53.572;10.174;2024-02-26T13:30:08;10.70;80.10
3298;DHT22;1661;53.572;10.174;2024-02-26T13:32:36;10.90;80.50
3298;DHT22;1661;53.572;10.174;2024-02-26T13:35:07;11.00;78.80
3298;DHT22;1661;53.572;10.174;2024-02-26T13:37:34;10.90;78.20
3298;DHT22;1661;53.572;10.174;2024-02-26T13:40:04;11.00;78.80
3298;DHT22;1661;53.572;10.174;2024-02-26T13:42:33;11.20;78.20
3298;DHT22;1661;53.572;10.174;2024-02-26T13:44:59;11.30;77.40
3298;DHT22;1661;53.572;10.174;2024-02-26T13:47:26;11.40;76.90
3298;DHT22;1661;53.572;10.174;2024-02-26T13:49:53;11.60;76.80
3298;DHT22;1661;53.572;10.174;2024-02-26T13:52:20;11.70;75.00
3298;DHT22;1661;53.572;10.174;2024-02-26T13:54:47;11.80;75.30
3298;DHT22;1661;53.572;10.174;2024-02-26T13:57:13;11.80;74.40
3298;DHT22;1661;53.572;10.174;2024-02-26T13:59:44;12.00;74.90
3298;DHT22;1661;53.572;10.174;2024-02-26T14:02:11;12.10;74.10
3298;DHT22;1661;53.572;10.174;2024-02-26T14:04:38;12.20;74.50
3298;DHT22;1661;53.572;10.174;2024-02-26T14:07:05;12.20;73.80
3298;DHT22;1661;53.572;10.174;2024-02-26T14:09:33;12.20;73.70
3298;DHT22;1661;53.572;10.174;2024-02-26T14:12:00;12.20;72.50
3298;DHT22;1661;53.572;10.174;2024-02-26T14:14:27;12.10;73.10
3298;DHT22;1661;53.572;10.174;2024-02-26T14:16:55;12.00;72.30
3298;DHT22;1661;53.572;10.174;2024-02-26T14:19:22;11.80;73.30
3298;DHT22;1661;53.572;10.174;2024-02-26T14:21:49;11.40;74.00
3298;DHT22;1661;53.572;10.174;2024-02-26T14:24:15;11.30;75.20
3298;DHT22;1661;53.572;10.174;2024-02-26T14:26:42;11.00;75.50
3298;DHT22;1661;53.572;10.174;2024-02-26T14:29:09;10.90;77.20
3298;DHT22;1661;53.572;10.174;2024-02-26T14:31:36;11.00;77.90
3298;DHT22;1661;53.572;10.174;2024-02-26T14:34:04;11.00;77.70
3298;DHT22;1661;53.572;10.174;2024-02-26T14:36:31;11.00;77.70
3298;DHT22;1661;53.572;10.174;2024-02-26T14:38:57;11.10;77.40
3298;DHT22;1661;53.572;10.174;2024-02-26T14:41:24;11.00;76.70
3298;DHT22;1661;53.572;10.174;2024-02-26T14:43:51;11.00;77.70
3298;DHT22;1661;53.572;10.174;2024-02-26T14:46:18;11.00;77.30
3298;DHT22;1661;53.572;10.174;2024-02-26T14:48:44;10.70;77.00
3298;DHT22;1661;53.572;10.174;2024-02-26T14:51:12;10.50;77.80
3298;DHT22;1661;53.572;10.174;2024-02-26T14:53:39;10.30;77.90
3298;DHT22;1661;53.572;10.174;2024-02-26T14:56:06;10.20;78.90
3298;DHT22;1661;53.572;10.174;2024-02-26T14:58:35;10.30;79.60
3298;DHT22;1661;53.572;10.174;2024-02-26T15:01:03;10.20;79.20
3298;DHT22;1661;53.572;10.174;2024-02-26T15:03:30;10.00;79.00
3298;DHT22;1661;53.572;10.174;2024-02-26T15:05:57;9.90;80.00
3298;DHT22;1661;53.572;10.174;2024-02-26T15:08:27;9.90;80.80
3298;DHT22;1661;53.572;10.174;2024-02-26T15:10:54;10.00;80.70
3298;DHT22;1661;53.572;10.174;2024-02-26T15:13:21;9.90;80.20
3298;DHT22;1661;53.572;10.174;2024-02-26T15:15:48;9.90;80.10
3298;DHT22;1661;53.572;10.174;2024-02-26T15:18:14;9.90;80.70
3298;DHT22;1661;53.572;10.174;2024-02-26T15:20:42;9.80;80.10
3298;DHT22;1661;53.572;10.174;2024-02-26T15:23:09;9.70;80.10
3298;DHT22;1661;53.572;10.174;2024-02-26T15:25:37;9.70;80.30
3298;DHT22;1661;53.572;10.174;2024-02-26T15:28:07;9.60;80.70
3298;DHT22;1661;53.572;10.174;2024-02-26T15:30:35;9.60;81.10
3298;DHT22;1661;53.572;10.174;2024-02-26T15:33:02;9.60;80.80
3298;DHT22;1661;53.572;10.174;2024-02-26T15:35:29;9.50;80.90
3298;DHT22;1661;53.572;10.174;2024-02-26T15:37:56;9.40;81.50
3298;DHT22;1661;53.572;10.174;2024-02-26T15:40:23;9.40;81.20
3298;DHT22;1661;53.572;10.174;2024-02-26T15:42:51;9.20;81.40
3298;DHT22;1661;53.572;10.174;2024-02-26T15:45:18;9.00;81.70
3298;DHT22;1661;53.572;10.174;2024-02-26T15:47:45;8.90;82.20
3298;DHT22;1661;53.572;10.174;2024-02-26T15:50:13;8.80;82.80
3298;DHT22;1661;53.572;10.174;2024-02-26T15:52:42;8.70;83.40
3298;DHT22;1661;53.572;10.174;2024-02-26T15:55:11;8.60;83.40
3298;DHT22;1661;53.572;10.174;2024-02-26T15:57:38;8.40;84.00
3298;DHT22;1661;53.572;10.174;2024-02-26T16:00:09;8.20;84.50
3298;DHT22;1661;53.572;10.174;2024-02-26T16:02:37;8.20;85.20
3298;DHT22;1661;53.572;10.174;2024-02-26T16:05:04;8.20;84.60